createdAt,value
2018-01-07T00:01:29.883Z,82.10
2018-01-07T00:03:56.218Z,82.10
2018-01-07T00:06:22.573Z,81.50
2018-01-07T00:08:48.958Z,81.50
2018-01-07T00:11:16.025Z,82.30
2018-01-07T00:13:42.986Z,82.20
2018-01-07T00:16:09.374Z,81.60
2018-01-07T00:18:35.752Z,81.60
2018-01-07T00:21:03.906Z,81.00
2018-01-07T00:23:30.306Z,82.20
2018-01-07T00:25:56.649Z,82.00
2018-01-07T00:28:29.757Z,81.50
2018-01-07T00:30:56.883Z,82.40
2018-01-07T00:33:23.982Z,82.10
2018-01-07T00:35:50.317Z,82.10
2018-01-07T00:38:16.619Z,82.20
2018-01-07T00:40:42.977Z,81.40
2018-01-07T00:43:10.382Z,81.30
2018-01-07T00:45:37.492Z,80.90
2018-01-07T00:48:03.878Z,80.90
2018-01-07T00:50:30.254Z,80.70
2018-01-07T00:53:02.582Z,80.20
2018-01-07T00:55:29.667Z,79.80
2018-01-07T00:58:06.489Z,79.80
2018-01-07T01:00:33.022Z,80.40
2018-01-07T01:02:59.349Z,80.30
2018-01-07T01:05:25.712Z,80.50
2018-01-07T01:07:52.073Z,80.40
2018-01-07T01:10:18.480Z,80.70
2018-01-07T01:12:44.821Z,80.40
2018-01-07T01:15:12.432Z,80.10
2018-01-07T01:20:38.352Z,80.10
2018-01-07T01:23:04.701Z,80.50
2018-01-07T01:25:31.236Z,80.70
2018-01-07T01:27:57.547Z,80.90
2018-01-07T01:30:24.105Z,81.20
2018-01-07T01:32:51.349Z,80.70
2018-01-07T01:35:17.755Z,80.60
2018-01-07T01:37:44.087Z,80.70
2018-01-07T01:40:10.451Z,81.60
2018-01-07T01:42:39.918Z,81.30
2018-01-07T01:45:06.282Z,81.00
2018-01-07T01:47:33.660Z,80.90
2018-01-07T01:50:00.768Z,81.10
2018-01-07T01:52:27.129Z,81.10
2018-01-07T01:54:53.465Z,80.80
2018-01-07T01:57:20.574Z,80.80
2018-01-07T01:59:46.909Z,80.80
2018-01-07T02:02:13.339Z,80.20
2018-01-07T02:04:39.665Z,80.20
2018-01-07T02:07:06.032Z,80.20
2018-01-07T02:09:32.394Z,80.80
2018-01-07T02:11:58.755Z,81.20
2018-01-07T02:14:25.091Z,81.80
2018-01-07T02:16:51.455Z,82.00
2018-01-07T02:19:17.771Z,81.80
2018-01-07T02:21:44.126Z,81.90
2018-01-07T02:24:11.231Z,82.40
2018-01-07T02:29:30.943Z,82.00
2018-01-07T02:31:57.298Z,82.40
2018-01-07T02:34:24.437Z,81.50
2018-01-07T02:36:50.930Z,81.50
2018-01-07T02:39:17.268Z,81.60
2018-01-07T02:41:43.638Z,81.80
2018-01-07T02:44:09.996Z,81.30
2018-01-07T02:46:37.144Z,81.70
2018-01-07T02:49:03.536Z,81.60
2018-01-07T02:51:30.030Z,82.00
2018-01-07T02:53:56.371Z,82.00
2018-01-07T02:56:22.758Z,81.30
2018-01-07T02:58:50.155Z,82.00
2018-01-07T03:01:16.516Z,81.80
2018-01-07T03:03:42.883Z,81.30
2018-01-07T03:06:09.227Z,81.30
2018-01-07T03:08:50.394Z,81.50
2018-01-07T03:11:16.737Z,81.90
2018-01-07T03:13:43.932Z,82.90
2018-01-07T03:16:12.301Z,82.90
2018-01-07T03:18:38.628Z,82.50
2018-01-07T03:21:04.989Z,82.50
2018-01-07T03:23:31.312Z,82.50
2018-01-07T03:26:00.829Z,82.50
2018-01-07T03:28:28.009Z,82.70
2018-01-07T03:30:54.330Z,82.70
2018-01-07T03:33:21.430Z,82.90
2018-01-07T03:35:47.874Z,82.80
2018-01-07T03:38:14.231Z,82.20
2018-01-07T03:40:41.314Z,82.00
2018-01-07T03:43:07.669Z,81.90
2018-01-07T03:45:34.006Z,81.90
2018-01-07T03:48:00.352Z,82.40
2018-01-07T03:50:26.718Z,81.30
2018-01-07T03:52:53.112Z,81.50
2018-01-07T03:55:19.475Z,81.60
2018-01-07T03:57:45.829Z,81.50
2018-01-07T04:00:12.500Z,80.80
2018-01-07T04:02:38.838Z,80.90
2018-01-07T04:05:05.258Z,81.70
2018-01-07T04:07:31.652Z,81.50
2018-01-07T04:09:58.125Z,81.80
2018-01-07T04:12:25.242Z,82.10
2018-01-07T04:14:51.557Z,81.40
2018-01-07T04:17:17.943Z,80.90
2018-01-07T04:19:44.299Z,81.70
2018-01-07T04:22:19.093Z,81.20
2018-01-07T04:24:45.451Z,80.90
2018-01-07T04:27:11.781Z,79.80
2018-01-07T04:29:38.094Z,80.00
2018-01-07T04:32:04.438Z,79.90
2018-01-07T04:34:31.196Z,80.50
2018-01-07T04:36:57.547Z,80.60
2018-01-07T04:39:23.887Z,80.20
2018-01-07T04:41:50.214Z,80.10
2018-01-07T04:44:16.732Z,79.60
2018-01-07T04:46:43.251Z,79.50
2018-01-07T04:49:09.624Z,79.50
2018-01-07T04:51:35.979Z,79.90
2018-01-07T04:54:02.297Z,80.30
2018-01-07T04:56:28.750Z,80.60
2018-01-07T04:58:55.122Z,80.10
2018-01-07T05:01:22.235Z,80.00
2018-01-07T05:03:48.558Z,79.90
2018-01-07T05:06:14.902Z,79.50
2018-01-07T05:08:41.229Z,79.40
2018-01-07T05:11:07.674Z,79.00
2018-01-07T05:13:34.250Z,78.80
2018-01-07T05:16:00.694Z,79.50
2018-01-07T05:18:27.067Z,79.30
2018-01-07T05:20:53.378Z,79.90
2018-01-07T05:23:19.709Z,79.60
2018-01-07T05:25:46.052Z,78.90
2018-01-07T05:28:18.457Z,78.90
2018-01-07T05:30:45.551Z,78.90
2018-01-07T05:33:11.877Z,78.90
2018-01-07T05:35:38.354Z,78.90
2018-01-07T05:38:04.699Z,78.50
2018-01-07T05:40:33.119Z,79.10
2018-01-07T05:42:59.485Z,79.00
2018-01-07T05:45:25.877Z,78.90
2018-01-07T05:47:52.185Z,78.80
2018-01-07T05:50:18.895Z,78.20
2018-01-07T05:52:45.259Z,78.50
2018-01-07T05:55:11.621Z,78.80
2018-01-07T05:57:38.001Z,78.90
2018-01-07T06:00:04.358Z,78.30
2018-01-07T06:02:30.709Z,78.40
2018-01-07T06:04:57.031Z,78.70
2018-01-07T06:07:23.366Z,79.20
2018-01-07T06:09:53.246Z,79.10
2018-01-07T06:12:20.336Z,78.10
2018-01-07T06:14:46.697Z,78.00
2018-01-07T06:17:13.045Z,77.70
2018-01-07T06:19:40.227Z,78.60
2018-01-07T06:22:06.591Z,78.10
2018-01-07T06:24:32.993Z,78.00
2018-01-07T06:26:59.339Z,77.70
2018-01-07T06:29:25.715Z,77.70
2018-01-07T06:31:52.840Z,78.80
2018-01-07T06:34:19.179Z,78.10
2018-01-07T06:36:45.584Z,78.10
2018-01-07T06:39:11.923Z,78.30
2018-01-07T06:41:38.338Z,77.70
2018-01-07T06:44:04.657Z,77.50
2018-01-07T06:46:31.074Z,77.20
2018-01-07T06:48:58.134Z,77.20
2018-01-07T06:51:24.744Z,77.10
2018-01-07T06:53:51.831Z,77.30
2018-01-07T06:56:18.241Z,76.70
2018-01-07T06:58:45.285Z,77.00
2018-01-07T07:01:12.421Z,77.10
2018-01-07T07:03:38.966Z,77.10
2018-01-07T07:06:11.583Z,76.80
2018-01-07T07:08:37.999Z,76.60
2018-01-07T07:11:04.301Z,77.60
2018-01-07T07:13:30.669Z,77.50
2018-01-07T07:15:58.023Z,76.60
2018-01-07T07:18:24.374Z,77.00
2018-01-07T07:20:50.830Z,77.20
2018-01-07T07:23:17.154Z,77.20
2018-01-07T07:25:43.761Z,76.80
2018-01-07T07:28:10.142Z,76.90
2018-01-07T07:30:36.606Z,76.40
2018-01-07T07:35:56.485Z,76.80
2018-01-07T07:38:23.583Z,76.00
2018-01-07T07:40:49.955Z,76.00
2018-01-07T07:43:16.731Z,76.30
2018-01-07T07:45:44.864Z,76.70
2018-01-07T07:48:11.178Z,76.70
2018-01-07T07:50:37.550Z,76.30
2018-01-07T07:53:04.914Z,76.60
2018-01-07T07:55:31.259Z,76.60
2018-01-07T07:57:57.566Z,77.10
2018-01-07T08:00:24.721Z,77.20
2018-01-07T08:02:51.025Z,77.20
2018-01-07T08:05:17.874Z,77.00
2018-01-07T08:07:45.038Z,76.50
2018-01-07T08:10:12.168Z,75.90
2018-01-07T08:12:39.253Z,75.40
2018-01-07T08:15:05.610Z,75.40
2018-01-07T08:17:31.925Z,76.20
2018-01-07T08:19:58.329Z,76.40
2018-01-07T08:22:25.457Z,75.80
2018-01-07T08:24:51.783Z,75.80
2018-01-07T08:27:18.118Z,75.90
2018-01-07T08:29:50.596Z,75.80
2018-01-07T08:32:17.819Z,75.60
2018-01-07T08:34:44.145Z,75.30
2018-01-07T08:37:10.561Z,76.50
2018-01-07T08:39:36.898Z,75.10
2018-01-07T08:42:03.316Z,74.80
2018-01-07T08:44:29.713Z,74.10
2018-01-07T08:46:56.014Z,75.00
2018-01-07T08:49:22.465Z,74.80
2018-01-07T08:51:49.536Z,75.30
2018-01-07T08:54:15.854Z,75.50
2018-01-07T08:56:42.178Z,75.40
2018-01-07T08:59:08.574Z,75.50
2018-01-07T09:01:34.908Z,74.80
2018-01-07T09:04:01.230Z,74.30
2018-01-07T09:06:27.621Z,74.40
2018-01-07T09:08:53.918Z,74.80
2018-01-07T09:11:21.005Z,75.10
2018-01-07T09:13:48.087Z,74.40
2018-01-07T09:16:14.389Z,74.40
2018-01-07T09:18:40.718Z,73.80
2018-01-07T09:21:07.021Z,73.90
2018-01-07T09:23:33.397Z,74.20
2018-01-07T09:26:01.536Z,74.10
2018-01-07T09:28:28.652Z,73.70
2018-01-07T09:30:54.960Z,73.60
2018-01-07T09:33:21.278Z,73.90
2018-01-07T09:35:47.672Z,74.20
2018-01-07T09:38:14.829Z,74.40
2018-01-07T09:40:41.193Z,74.30
2018-01-07T09:43:08.687Z,73.90
2018-01-07T09:45:34.994Z,73.20
2018-01-07T09:48:01.376Z,73.60
2018-01-07T09:50:27.726Z,73.10
2018-01-07T09:52:54.581Z,72.80
2018-01-07T09:55:20.936Z,73.10
2018-01-07T09:57:48.252Z,72.30
2018-01-07T10:00:14.614Z,72.30
2018-01-07T10:02:40.943Z,72.60
2018-01-07T10:05:07.390Z,71.80
2018-01-07T10:07:33.701Z,72.30
2018-01-07T10:10:00.073Z,72.60
2018-01-07T10:12:27.203Z,71.90
2018-01-07T10:14:53.500Z,71.90
2018-01-07T10:17:25.925Z,72.70
2018-01-07T10:19:53.023Z,72.70
2018-01-07T10:22:19.401Z,73.40
2018-01-07T10:24:55.691Z,72.00
2018-01-07T10:27:22.746Z,72.20
2018-01-07T10:29:49.777Z,71.80
2018-01-07T10:32:22.322Z,71.70
2018-01-07T10:34:48.634Z,72.30
2018-01-07T10:37:15.006Z,72.70
2018-01-07T10:39:41.316Z,71.30
2018-01-07T10:42:07.621Z,71.70
2018-01-07T10:44:34.750Z,71.10
2018-01-07T10:47:01.072Z,71.20
2018-01-07T10:49:28.148Z,72.00
2018-01-07T10:51:54.441Z,72.00
2018-01-07T10:54:21.628Z,70.80
2018-01-07T10:56:48.011Z,70.80
2018-01-07T10:59:15.142Z,70.90
2018-01-07T11:01:47.590Z,70.80
2018-01-07T11:04:13.881Z,71.30
2018-01-07T11:06:40.947Z,71.10
2018-01-07T11:09:07.263Z,71.00
2018-01-07T11:11:33.582Z,71.00
2018-01-07T11:14:06.013Z,71.60
2018-01-07T11:16:32.493Z,71.30
2018-01-07T11:19:00.111Z,70.50
2018-01-07T11:21:26.503Z,70.70
2018-01-07T11:23:52.842Z,71.20
2018-01-07T11:26:19.294Z,70.40
2018-01-07T11:28:45.621Z,71.60
2018-01-07T11:31:11.937Z,69.90
2018-01-07T11:33:38.257Z,70.40
2018-01-07T11:36:04.578Z,70.60
2018-01-07T11:38:40.063Z,71.00
2018-01-07T11:41:12.432Z,71.00
2018-01-07T11:43:38.766Z,70.70
2018-01-07T11:46:05.062Z,70.10
2018-01-07T11:48:32.131Z,70.20
2018-01-07T11:50:58.459Z,70.20
2018-01-07T11:53:24.811Z,69.60
2018-01-07T11:55:51.114Z,69.00
2018-01-07T11:58:17.431Z,69.80
2018-01-07T12:00:43.720Z,69.60
2018-01-07T12:03:10.701Z,69.40
2018-01-07T12:05:37.048Z,69.50
2018-01-07T12:08:03.358Z,69.70
2018-01-07T12:10:35.938Z,69.50
2018-01-07T12:13:02.327Z,69.40
2018-01-07T12:15:28.660Z,69.20
2018-01-07T12:17:54.995Z,69.20
2018-01-07T12:20:22.161Z,69.00
2018-01-07T12:22:54.571Z,69.10
2018-01-07T12:25:20.893Z,68.60
2018-01-07T12:27:47.217Z,68.70
2018-01-07T12:30:13.581Z,68.40
2018-01-07T12:32:39.998Z,67.50
2018-01-07T12:35:06.326Z,68.40
2018-01-07T12:37:32.669Z,68.30
2018-01-07T12:39:58.978Z,67.70
2018-01-07T12:42:25.609Z,67.40
2018-01-07T12:44:51.952Z,66.80
2018-01-07T12:47:18.270Z,66.70
2018-01-07T12:49:44.567Z,66.90
2018-01-07T12:52:10.857Z,66.10
2018-01-07T12:54:37.746Z,66.30
2018-01-07T12:57:04.152Z,66.40
2018-01-07T12:59:30.474Z,66.70
2018-01-07T13:01:56.753Z,67.40
2018-01-07T13:04:23.813Z,66.90
2018-01-07T13:06:50.110Z,66.80
2018-01-07T13:09:16.446Z,67.00
2018-01-07T13:11:42.749Z,67.50
2018-01-07T13:14:09.076Z,68.00
2018-01-07T13:16:36.277Z,66.80
2018-01-07T13:19:03.326Z,66.90
2018-01-07T13:21:29.675Z,66.90
2018-01-07T13:23:56.058Z,67.40
2018-01-07T13:26:22.394Z,66.90
2018-01-07T13:28:48.713Z,66.90
2018-01-07T13:31:15.065Z,66.80
2018-01-07T13:33:41.414Z,67.10
2018-01-07T13:36:07.782Z,67.40
2018-01-07T13:41:30.201Z,67.70
2018-01-07T13:43:57.427Z,67.70
2018-01-07T13:46:24.858Z,67.00
2018-01-07T13:48:51.175Z,67.00
2018-01-07T13:51:18.366Z,67.20
2018-01-07T13:53:44.659Z,67.60
2018-01-07T13:56:10.962Z,67.20
2018-01-07T13:58:37.590Z,67.40
2018-01-07T14:01:03.898Z,67.90
2018-01-07T14:03:30.234Z,66.80
2018-01-07T14:05:57.285Z,68.20
2018-01-07T14:08:24.414Z,67.40
2018-01-07T14:10:50.732Z,67.40
2018-01-07T14:13:18.742Z,67.40
2018-01-07T14:15:45.086Z,67.70
2018-01-07T14:18:11.554Z,67.60
2018-01-07T14:20:37.893Z,67.60
2018-01-07T14:23:04.198Z,68.50
2018-01-07T14:25:30.576Z,68.40
2018-01-07T14:27:56.883Z,67.50
2018-01-07T14:30:23.313Z,67.70
2018-01-07T14:32:49.634Z,67.90
2018-01-07T14:35:15.995Z,68.50
2018-01-07T14:37:42.311Z,68.70
2018-01-07T14:40:08.627Z,68.40
2018-01-07T14:42:35.243Z,68.40
2018-01-07T14:45:01.574Z,68.30
2018-01-07T14:47:27.901Z,68.40
2018-01-07T14:49:54.233Z,68.10
2018-01-07T14:55:13.984Z,68.90
2018-01-07T14:57:40.385Z,68.50
2018-01-07T15:00:07.116Z,68.30
2018-01-07T15:02:33.426Z,68.50
2018-01-07T15:04:59.722Z,68.60
2018-01-07T15:07:26.000Z,68.70
2018-01-07T15:09:52.654Z,68.50
2018-01-07T15:12:18.979Z,68.60
2018-01-07T15:14:45.334Z,68.50
2018-01-07T15:17:11.610Z,68.70
2018-01-07T15:19:37.917Z,68.50
2018-01-07T15:22:04.941Z,68.90
2018-01-07T15:24:31.230Z,68.30
2018-01-07T15:26:57.528Z,68.90
2018-01-07T15:29:25.634Z,68.90
2018-01-07T15:31:51.918Z,68.90
2018-01-07T15:34:18.236Z,69.10
2018-01-07T15:36:44.546Z,68.90
2018-01-07T15:39:10.850Z,68.70
2018-01-07T15:41:50.518Z,69.30
2018-01-07T15:44:17.567Z,69.10
2018-01-07T15:46:43.913Z,68.50
2018-01-07T15:49:34.717Z,68.70
2018-01-07T15:52:01.054Z,68.90
2018-01-07T15:54:27.338Z,68.80
2018-01-07T15:56:53.653Z,68.70
2018-01-07T15:59:19.927Z,68.60
2018-01-07T16:01:46.278Z,68.90
2018-01-07T16:04:12.565Z,67.90
2018-01-07T16:06:38.999Z,68.70
2018-01-07T16:09:06.421Z,69.00
2018-01-07T16:11:33.481Z,68.70
2018-01-07T16:13:59.850Z,68.70
2018-01-07T16:16:26.221Z,69.30
2018-01-07T16:18:53.595Z,68.90
2018-01-07T16:21:23.248Z,68.90
2018-01-07T16:23:49.554Z,68.80
2018-01-07T16:26:20.534Z,68.70
2018-01-07T16:28:46.891Z,68.40
2018-01-07T16:31:13.429Z,68.70
2018-01-07T16:33:40.592Z,69.00
2018-01-07T16:36:06.905Z,68.90
2018-01-07T16:38:33.208Z,68.70
2018-01-07T16:40:59.521Z,68.80
2018-01-07T16:43:25.924Z,68.90
2018-01-07T16:45:55.362Z,69.20
2018-01-07T17:20:23.922Z,66.60
2018-01-07T17:22:50.248Z,66.90
2018-01-07T17:25:16.594Z,66.50
2018-01-07T17:27:44.729Z,66.90
2018-01-07T17:30:11.793Z,66.90
2018-01-07T17:32:38.133Z,66.90
2018-01-07T17:35:04.430Z,67.40
2018-01-07T17:37:31.496Z,67.80
2018-01-07T17:39:58.869Z,66.60
2018-01-07T17:42:25.186Z,66.60
2018-01-07T17:44:51.487Z,66.90
2018-01-07T17:50:14.652Z,66.70
2018-01-07T17:52:41.802Z,67.10
2018-01-07T17:55:08.148Z,67.10
2018-01-07T17:57:35.232Z,67.20
2018-01-07T18:00:01.590Z,67.20
2018-01-07T18:02:27.913Z,67.20
2018-01-07T18:04:54.342Z,67.00
2018-01-07T18:07:20.698Z,66.90
2018-01-07T18:09:47.039Z,67.30
2018-01-07T18:12:13.342Z,67.30
2018-01-07T18:14:39.654Z,67.30
2018-01-07T18:17:06.074Z,67.50
2018-01-07T18:19:33.095Z,67.30
2018-01-07T18:21:59.977Z,67.10
2018-01-07T18:31:03.120Z,67.00
2018-01-07T18:33:41.421Z,67.00
2018-01-07T18:36:08.829Z,66.90
2018-01-07T18:38:36.230Z,67.60
2018-01-07T18:41:02.631Z,67.10
2018-01-07T18:43:31.642Z,67.80
2018-01-07T18:49:15.300Z,66.90
2018-01-07T18:51:42.834Z,67.10
2018-01-07T18:54:09.406Z,67.00
2018-01-07T18:56:38.024Z,67.30
2018-01-07T18:59:05.504Z,66.90
2018-01-07T19:01:32.390Z,66.90
2018-01-07T19:03:59.382Z,67.20
2018-01-07T19:06:33.267Z,67.40
2018-01-07T19:09:00.466Z,67.40
2018-01-07T19:11:28.112Z,67.50
2018-01-07T19:13:54.736Z,67.50
2018-01-07T19:16:28.147Z,67.40
2018-01-07T19:18:55.194Z,67.10
2018-01-07T19:21:21.961Z,66.70
2018-01-07T20:10:36.669Z,68.00
2018-01-07T20:13:04.525Z,68.00
2018-01-07T20:15:30.935Z,68.10
2018-01-07T20:17:57.309Z,68.50
2018-01-07T20:20:23.634Z,68.50
2018-01-07T20:23:10.381Z,68.20
2018-01-07T20:25:38.239Z,68.20
2018-01-07T20:28:05.027Z,68.30
2018-01-07T20:30:47.931Z,68.20
2018-01-07T20:33:19.472Z,68.10
2018-01-07T20:35:47.389Z,68.60
2018-01-07T20:38:14.944Z,67.90
2018-01-07T20:40:52.701Z,67.60
2018-01-07T20:43:37.615Z,68.30
2018-01-07T20:46:10.351Z,68.30
2018-01-07T20:48:36.738Z,68.40
2018-01-07T20:51:25.877Z,68.00
2018-01-07T20:53:52.532Z,68.30
2018-01-07T20:56:18.815Z,68.50
2018-01-07T20:58:45.113Z,68.40
2018-01-07T21:01:11.412Z,68.40
2018-01-07T21:03:38.414Z,68.60
2018-01-07T21:06:05.576Z,68.60
2018-01-07T21:08:32.819Z,68.60
2018-01-07T21:10:59.107Z,68.50
2018-01-07T21:13:25.371Z,68.70
2018-01-07T21:15:51.880Z,68.70
2018-01-07T21:18:18.176Z,69.00
2018-01-07T21:20:44.455Z,69.10
2018-01-07T21:23:10.736Z,69.00
2018-01-07T21:25:36.983Z,68.70
2018-01-07T21:28:04.004Z,68.50
2018-01-07T21:30:30.260Z,68.50
2018-01-07T21:32:56.547Z,68.20
2018-01-07T21:35:22.844Z,68.90
2018-01-07T21:37:49.096Z,69.10
2018-01-07T21:40:15.363Z,68.70
2018-01-07T21:42:42.628Z,69.10
2018-01-07T21:45:08.940Z,68.70
2018-01-07T21:47:35.245Z,69.00
2018-01-07T21:50:01.516Z,69.00
2018-01-07T21:52:27.792Z,69.00
2018-01-07T21:57:44.991Z,69.60
2018-01-07T22:00:38.211Z,69.30
2018-01-07T22:03:16.511Z,68.90
2018-01-07T22:05:54.755Z,69.00
2018-01-07T22:08:21.049Z,68.80
2018-01-07T22:10:47.348Z,69.10
2018-01-07T22:13:13.595Z,69.20
2018-01-07T22:15:39.868Z,69.50
2018-01-07T22:18:06.653Z,69.30
2018-01-07T22:20:32.938Z,69.50
2018-01-07T22:22:59.196Z,69.20
2018-01-07T22:25:25.448Z,69.20
2018-01-07T22:27:51.703Z,69.30
2018-01-07T22:30:17.956Z,69.50
2018-01-07T22:32:44.260Z,70.10
2018-01-07T22:35:10.553Z,69.80
2018-01-07T22:37:36.904Z,70.30
2018-01-07T22:40:03.142Z,70.20
2018-01-07T22:42:29.430Z,70.20
2018-01-07T22:44:55.676Z,70.30
2018-01-07T22:47:28.309Z,70.40
2018-01-07T22:49:54.600Z,70.20
2018-01-07T22:52:20.895Z,70.60
2018-01-07T22:54:47.169Z,70.50
2018-01-07T22:57:13.419Z,70.40
2018-01-07T22:59:39.722Z,70.60
2018-01-07T23:02:05.968Z,71.50
2018-01-07T23:04:32.300Z,71.00
2018-01-07T23:06:58.548Z,71.20
2018-01-07T23:09:24.867Z,71.20
2018-01-07T23:11:51.119Z,71.10
2018-01-07T23:14:17.387Z,71.10
2018-01-07T23:16:43.656Z,71.60
2018-01-07T23:19:09.910Z,71.30
2018-01-07T23:21:36.179Z,71.50
2018-01-07T23:24:02.894Z,71.20
2018-01-07T23:26:29.939Z,71.30
2018-01-07T23:28:56.195Z,71.30
2018-01-07T23:31:22.484Z,71.50
2018-01-07T23:33:48.740Z,71.60
2018-01-07T23:36:15.021Z,71.50
2018-01-07T23:38:41.283Z,71.70
2018-01-07T23:41:08.010Z,71.70
2018-01-07T23:43:34.319Z,71.90
2018-01-07T23:46:00.579Z,72.00
2018-01-07T23:48:26.856Z,72.10
2018-01-07T23:50:53.107Z,72.20
2018-01-07T23:53:19.475Z,71.70
2018-01-07T23:55:45.752Z,72.00
2018-01-07T23:58:12.043Z,72.00
